sensor_id;sensor_type;location;lat;lon;timestamp;pressure;altitude;pressure_sealevel;temperature;humidity
63097;BME280;49185;42.320;23.198;2023-07-20T00:00:29;94546.66;;;21.61;62.91
63097;BME280;49185;42.320;23.198;2023-07-20T00:03:10;94552.75;;;21.41;65.38
63097;BME280;49185;42.320;23.198;2023-07-20T00:05:35;94552.94;;;21.01;67.22
63097;BME280;49185;42.320;23.198;2023-07-20T00:08:01;94556.41;;;20.58;69.09
63097;BME280;49185;42.320;23.198;2023-07-20T00:10:26;94550.34;;;20.43;70.01
63097;BME280;49185;42.320;23.198;2023-07-20T00:12:52;94551.69;;;20.23;70.75
63097;BME280;49185;42.320;23.198;2023-07-20T00:15:17;94545.00;;;20.12;71.67
63097;BME280;49185;42.320;23.198;2023-07-20T00:18:01;94541.69;;;20.15;72.34
63097;BME280;49185;42.320;23.198;2023-07-20T00:20:27;94552.16;;;20.08;71.92
63097;BME280;49185;42.320;23.198;2023-07-20T00:22:52;94546.38;;;20.01;72.59
63097;BME280;49185;42.320;23.198;2023-07-20T00:25:18;94543.97;;;19.90;72.94
63097;BME280;49185;42.320;23.198;2023-07-20T00:27:43;94555.56;;;19.91;73.33
63097;BME280;49185;42.320;23.198;2023-07-20T00:30:09;94550.38;;;19.72;74.72
63097;BME280;49185;42.320;23.198;2023-07-20T00:32:35;94549.38;;;19.59;74.84
63097;BME280;49185;42.320;23.198;2023-07-20T00:35:00;94545.78;;;19.41;75.80
63097;BME280;49185;42.320;23.198;2023-07-20T00:37:26;94550.69;;;19.39;76.16
63097;BME280;49185;42.320;23.198;2023-07-20T00:39:53;94539.19;;;19.25;77.67
63097;BME280;49185;42.320;23.198;2023-07-20T00:42:18;94545.38;;;19.25;77.37
63097;BME280;49185;42.320;23.198;2023-07-20T00:44:44;94552.97;;;19.23;76.96
63097;BME280;49185;42.320;23.198;2023-07-20T00:47:09;94540.22;;;19.15;78.01
63097;BME280;49185;42.320;23.198;2023-07-20T00:49:35;94530.09;;;19.21;77.76
63097;BME280;49185;42.320;23.198;2023-07-20T00:52:03;94535.47;;;19.21;78.00
63097;BME280;49185;42.320;23.198;2023-07-20T00:54:31;94535.97;;;19.23;77.54
63097;BME280;49185;42.320;23.198;2023-07-20T00:57:15;94539.66;;;19.27;77.58
63097;BME280;49185;42.320;23.198;2023-07-20T00:59:42;94532.00;;;19.20;77.40
63097;BME280;49185;42.320;23.198;2023-07-20T01:02:08;94542.78;;;19.20;77.96
63097;BME280;49185;42.320;23.198;2023-07-20T01:04:34;94534.63;;;19.11;78.36
63097;BME280;49185;42.320;23.198;2023-07-20T01:10:05;94514.13;;;19.02;78.93
63097;BME280;49185;42.320;23.198;2023-07-20T01:12:46;94524.69;;;18.98;79.36
63097;BME280;49185;42.320;23.198;2023-07-20T01:15:13;94517.38;;;18.90;79.63
63097;BME280;49185;42.320;23.198;2023-07-20T01:17:39;94521.34;;;18.92;79.27
63097;BME280;49185;42.320;23.198;2023-07-20T01:20:06;94525.56;;;18.85;80.31
63097;BME280;49185;42.320;23.198;2023-07-20T01:23:01;94522.09;;;18.84;80.02
63097;BME280;49185;42.320;23.198;2023-07-20T01:28:34;94517.63;;;19.02;80.18
63097;BME280;49185;42.320;23.198;2023-07-20T01:31:25;94510.91;;;19.00;80.45
63097;BME280;49185;42.320;23.198;2023-07-20T01:33:57;94508.50;;;18.89;81.09
63097;BME280;49185;42.320;23.198;2023-07-20T01:36:24;94505.19;;;18.78;82.40
63097;BME280;49185;42.320;23.198;2023-07-20T01:38:52;94511.13;;;18.67;83.78
63097;BME280;49185;42.320;23.198;2023-07-20T01:41:18;94508.25;;;18.63;83.84
63097;BME280;49185;42.320;23.198;2023-07-20T01:43:44;94504.81;;;18.71;83.91
63097;BME280;49185;42.320;23.198;2023-07-20T01:46:09;94502.03;;;18.63;82.94
63097;BME280;49185;42.320;23.198;2023-07-20T01:48:35;94502.59;;;18.51;83.07
63097;BME280;49185;42.320;23.198;2023-07-20T01:51:00;94507.13;;;18.42;83.77
63097;BME280;49185;42.320;23.198;2023-07-20T01:53:26;94512.47;;;18.05;87.70
63097;BME280;49185;42.320;23.198;2023-07-20T01:55:54;94517.31;;;17.75;88.52
63097;BME280;49185;42.320;23.198;2023-07-20T01:58:20;94519.53;;;17.73;88.62
63097;BME280;49185;42.320;23.198;2023-07-20T02:00:46;94502.78;;;17.62;89.46
63097;BME280;49185;42.320;23.198;2023-07-20T02:03:11;94512.22;;;17.60;89.55
63097;BME280;49185;42.320;23.198;2023-07-20T02:05:37;94523.09;;;17.69;89.24
63097;BME280;49185;42.320;23.198;2023-07-20T02:08:03;94513.16;;;17.69;88.68
63097;BME280;49185;42.320;23.198;2023-07-20T02:10:28;94509.16;;;17.67;88.99
63097;BME280;49185;42.320;23.198;2023-07-20T02:12:54;94521.81;;;17.66;89.04
63097;BME280;49185;42.320;23.198;2023-07-20T02:15:19;94529.28;;;17.69;88.68
63097;BME280;49185;42.320;23.198;2023-07-20T02:17:45;94513.94;;;17.70;88.57
63097;BME280;49185;42.320;23.198;2023-07-20T02:20:10;94517.03;;;17.63;89.41
63097;BME280;49185;42.320;23.198;2023-07-20T02:22:37;94522.00;;;17.56;89.92
63097;BME280;49185;42.320;23.198;2023-07-20T02:25:04;94527.28;;;17.61;89.60
63097;BME280;49185;42.320;23.198;2023-07-20T02:27:30;94525.09;;;17.63;89.14
63097;BME280;49185;42.320;23.198;2023-07-20T02:29:55;94527.97;;;17.67;89.00
63097;BME280;49185;42.320;23.198;2023-07-20T02:32:23;94532.00;;;17.69;88.92
63097;BME280;49185;42.320;23.198;2023-07-20T02:34:49;94522.50;;;17.58;89.06
63097;BME280;49185;42.320;23.198;2023-07-20T02:37:16;94520.28;;;17.60;89.19
63097;BME280;49185;42.320;23.198;2023-07-20T02:39:41;94512.25;;;17.46;90.13
63097;BME280;49185;42.320;23.198;2023-07-20T02:42:07;94521.78;;;17.38;90.75
63097;BME280;49185;42.320;23.198;2023-07-20T02:44:32;94514.28;;;17.21;90.75
63097;BME280;49185;42.320;23.198;2023-07-20T02:46:57;94513.88;;;17.14;90.94
63097;BME280;49185;42.320;23.198;2023-07-20T02:49:23;94516.22;;;17.02;91.74
63097;BME280;49185;42.320;23.198;2023-07-20T02:51:49;94512.16;;;16.85;92.56
63097;BME280;49185;42.320;23.198;2023-07-20T02:54:15;94502.28;;;16.81;93.17
63097;BME280;49185;42.320;23.198;2023-07-20T02:56:40;94505.75;;;16.81;92.65
63097;BME280;49185;42.320;23.198;2023-07-20T02:59:05;94498.28;;;16.78;92.49
63097;BME280;49185;42.320;23.198;2023-07-20T03:01:31;94504.69;;;16.82;92.83
63097;BME280;49185;42.320;23.198;2023-07-20T03:03:56;94513.78;;;16.86;93.00
63097;BME280;49185;42.320;23.198;2023-07-20T03:06:22;94512.97;;;16.86;92.62
63097;BME280;49185;42.320;23.198;2023-07-20T03:08:47;94498.56;;;16.77;92.73
63097;BME280;49185;42.320;23.198;2023-07-20T03:11:14;94497.00;;;16.76;93.71
63097;BME280;49185;42.320;23.198;2023-07-20T03:13:40;94504.47;;;16.79;93.11
63097;BME280;49185;42.320;23.198;2023-07-20T03:16:09;94508.53;;;16.76;93.87
63097;BME280;49185;42.320;23.198;2023-07-20T03:18:35;94497.19;;;16.79;93.42
63097;BME280;49185;42.320;23.198;2023-07-20T03:21:00;94501.19;;;16.82;94.20
63097;BME280;49185;42.320;23.198;2023-07-20T03:23:26;94502.38;;;16.76;93.85
63097;BME280;49185;42.320;23.198;2023-07-20T03:25:52;94506.28;;;16.83;93.56
63097;BME280;49185;42.320;23.198;2023-07-20T03:28:17;94509.81;;;16.84;94.13
63097;BME280;49185;42.320;23.198;2023-07-20T03:30:42;94506.78;;;16.85;93.83
63097;BME280;49185;42.320;23.198;2023-07-20T03:33:08;94519.19;;;16.81;94.36
63097;BME280;49185;42.320;23.198;2023-07-20T03:35:33;94527.41;;;16.90;93.42
63097;BME280;49185;42.320;23.198;2023-07-20T03:37:59;94520.78;;;17.01;92.99
63097;BME280;49185;42.320;23.198;2023-07-20T03:40:24;94523.31;;;17.12;92.58
63097;BME280;49185;42.320;23.198;2023-07-20T03:42:49;94524.94;;;17.26;92.75
63097;BME280;49185;42.320;23.198;2023-07-20T03:45:15;94527.84;;;17.30;91.89
63097;BME280;49185;42.320;23.198;2023-07-20T03:47:40;94529.91;;;17.33;92.68
63097;BME280;49185;42.320;23.198;2023-07-20T03:50:06;94523.59;;;17.43;92.36
63097;BME280;49185;42.320;23.198;2023-07-20T03:52:32;94537.94;;;17.52;92.25
63097;BME280;49185;42.320;23.198;2023-07-20T03:54:57;94537.81;;;17.43;92.79
63097;BME280;49185;42.320;23.198;2023-07-20T03:57:23;94536.03;;;17.53;91.89
63097;BME280;49185;42.320;23.198;2023-07-20T03:59:48;94553.50;;;17.69;90.92
63097;BME280;49185;42.320;23.198;2023-07-20T04:02:13;94551.00;;;17.59;91.91
63097;BME280;49185;42.320;23.198;2023-07-20T04:04:40;94548.13;;;17.69;90.54
63097;BME280;49185;42.320;23.198;2023-07-20T04:07:05;94555.09;;;17.84;89.74
63097;BME280;49185;42.320;23.198;2023-07-20T04:09:31;94553.34;;;18.07;88.59
63097;BME280;49185;42.320;23.198;2023-07-20T04:11:57;94544.88;;;18.14;87.74
63097;BME280;49185;42.320;23.198;2023-07-20T04:14:22;94536.09;;;18.08;87.96
63097;BME280;49185;42.320;23.198;2023-07-20T04:16:48;94530.47;;;18.32;86.73
63097;BME280;49185;42.320;23.198;2023-07-20T04:19:16;94526.16;;;18.45;86.52
63097;BME280;49185;42.320;23.198;2023-07-20T04:21:41;94530.00;;;18.67;86.09
63097;BME280;49185;42.320;23.198;2023-07-20T04:24:07;94516.06;;;18.87;85.06
63097;BME280;49185;42.320;23.198;2023-07-20T04:26:32;94515.28;;;19.09;83.88
63097;BME280;49185;42.320;23.198;2023-07-20T04:28:58;94529.53;;;18.87;85.62
63097;BME280;49185;42.320;23.198;2023-07-20T04:31:23;94516.50;;;19.03;85.21
63097;BME280;49185;42.320;23.198;2023-07-20T04:33:49;94522.69;;;19.04;84.98
63097;BME280;49185;42.320;23.198;2023-07-20T04:36:14;94513.84;;;19.34;83.67
63097;BME280;49185;42.320;23.198;2023-07-20T04:38:39;94519.41;;;19.69;81.83
63097;BME280;49185;42.320;23.198;2023-07-20T04:41:05;94505.94;;;20.36;79.47
63097;BME280;49185;42.320;23.198;2023-07-20T04:43:31;94510.44;;;21.01;76.19
63097;BME280;49185;42.320;23.198;2023-07-20T04:45:56;94501.06;;;21.72;73.90
63097;BME280;49185;42.320;23.198;2023-07-20T04:48:21;94504.84;;;22.48;69.86
63097;BME280;49185;42.320;23.198;2023-07-20T04:50:47;94509.34;;;22.86;68.55
63097;BME280;49185;42.320;23.198;2023-07-20T04:53:12;94509.16;;;23.12;67.97
63097;BME280;49185;42.320;23.198;2023-07-20T04:55:39;94520.03;;;23.70;66.78
63097;BME280;49185;42.320;23.198;2023-07-20T04:58:05;94512.47;;;23.64;65.19
63097;BME280;49185;42.320;23.198;2023-07-20T05:00:32;94523.25;;;24.47;62.56
63097;BME280;49185;42.320;23.198;2023-07-20T05:02:58;94533.25;;;24.67;62.65
63097;BME280;49185;42.320;23.198;2023-07-20T05:05:23;94533.13;;;24.39;63.56
63097;BME280;49185;42.320;23.198;2023-07-20T05:07:49;94526.53;;;24.52;63.13
63097;BME280;49185;42.320;23.198;2023-07-20T05:10:14;94528.94;;;25.07;60.72
63097;BME280;49185;42.320;23.198;2023-07-20T05:12:40;94532.84;;;25.34;59.72
63097;BME280;49185;42.320;23.198;2023-07-20T05:15:06;94532.63;;;25.27;60.55
63097;BME280;49185;42.320;23.198;2023-07-20T05:17:31;94528.41;;;25.29;61.49
63097;BME280;49185;42.320;23.198;2023-07-20T05:19:57;94531.41;;;25.84;59.64
63097;BME280;49185;42.320;23.198;2023-07-20T05:22:22;94533.19;;;25.76;58.87
63097;BME280;49185;42.320;23.198;2023-07-20T05:24:47;94529.91;;;26.34;57.00
63097;BME280;49185;42.320;23.198;2023-07-20T05:27:13;94532.38;;;27.11;53.02
63097;BME280;49185;42.320;23.198;2023-07-20T05:29:44;94521.59;;;27.99;51.28
63097;BME280;49185;42.320;23.198;2023-07-20T05:32:09;94528.53;;;27.31;51.44
63097;BME280;49185;42.320;23.198;2023-07-20T05:34:35;94528.22;;;27.98;50.35
63097;BME280;49185;42.320;23.198;2023-07-20T05:37:00;94525.94;;;27.38;52.28
63097;BME280;49185;42.320;23.198;2023-07-20T05:39:26;94525.53;;;28.02;51.21
63097;BME280;49185;42.320;23.198;2023-07-20T05:41:51;94522.09;;;27.62;50.81
63097;BME280;49185;42.320;23.198;2023-07-20T05:44:17;94530.03;;;27.28;50.67
63097;BME280;49185;42.320;23.198;2023-07-20T05:46:42;94538.94;;;27.25;50.33
63097;BME280;49185;42.320;23.198;2023-07-20T05:49:08;94546.09;;;26.95;51.88
63097;BME280;49185;42.320;23.198;2023-07-20T05:51:33;94538.31;;;27.32;52.27
63097;BME280;49185;42.320;23.198;2023-07-20T05:53:58;94532.38;;;28.38;48.43
63097;BME280;49185;42.320;23.198;2023-07-20T05:56:24;94534.84;;;29.01;47.38
63097;BME280;49185;42.320;23.198;2023-07-20T05:58:51;94531.66;;;28.98;46.36
63097;BME280;49185;42.320;23.198;2023-07-20T06:01:17;94545.56;;;29.43;45.13
63097;BME280;49185;42.320;23.198;2023-07-20T06:03:42;94537.81;;;29.49;45.16
63097;BME280;49185;42.320;23.198;2023-07-20T06:06:08;94536.97;;;28.57;46.72
63097;BME280;49185;42.320;23.198;2023-07-20T06:08:35;94538.75;;;29.30;46.00
63097;BME280;49185;42.320;23.198;2023-07-20T06:11:01;94535.19;;;29.26;46.01
63097;BME280;49185;42.320;23.198;2023-07-20T06:13:26;94544.75;;;29.12;45.80
63097;BME280;49185;42.320;23.198;2023-07-20T06:15:52;94526.38;;;29.77;44.64
63097;BME280;49185;42.320;23.198;2023-07-20T06:18:20;94532.06;;;28.97;46.22
63097;BME280;49185;42.320;23.198;2023-07-20T06:20:52;94528.50;;;29.23;48.80
63097;BME280;49185;42.320;23.198;2023-07-20T06:23:21;94528.84;;;30.34;43.46
63097;BME280;49185;42.320;23.198;2023-07-20T06:25:46;94523.28;;;30.27;45.33
63097;BME280;49185;42.320;23.198;2023-07-20T06:28:12;94520.78;;;30.07;44.83
63097;BME280;49185;42.320;23.198;2023-07-20T06:30:38;94515.63;;;30.02;44.63
63097;BME280;49185;42.320;23.198;2023-07-20T06:33:03;94513.09;;;29.83;43.72
63097;BME280;49185;42.320;23.198;2023-07-20T06:35:28;94511.91;;;29.46;43.44
63097;BME280;49185;42.320;23.198;2023-07-20T06:37:54;94503.19;;;29.75;42.16
63097;BME280;49185;42.320;23.198;2023-07-20T06:40:19;94505.31;;;29.88;44.18
63097;BME280;49185;42.320;23.198;2023-07-20T06:42:47;94501.63;;;30.15;43.11
63097;BME280;49185;42.320;23.198;2023-07-20T06:45:12;94504.41;;;30.18;42.45
63097;BME280;49185;42.320;23.198;2023-07-20T06:47:38;94501.63;;;30.15;43.43
63097;BME280;49185;42.320;23.198;2023-07-20T06:50:05;94499.25;;;30.65;41.99
63097;BME280;49185;42.320;23.198;2023-07-20T06:52:30;94489.69;;;31.11;41.71
63097;BME280;49185;42.320;23.198;2023-07-20T06:54:56;94486.97;;;31.21;40.99
63097;BME280;49185;42.320;23.198;2023-07-20T06:57:21;94485.16;;;31.62;40.17
63097;BME280;49185;42.320;23.198;2023-07-20T06:59:47;94483.56;;;31.50;38.58
63097;BME280;49185;42.320;23.198;2023-07-20T07:02:12;94483.56;;;30.62;41.06
63097;BME280;49185;42.320;23.198;2023-07-20T07:04:41;94502.22;;;31.01;40.84
63097;BME280;49185;42.320;23.198;2023-07-20T07:07:06;94515.06;;;29.45;43.03
63097;BME280;49185;42.320;23.198;2023-07-20T07:09:32;94523.72;;;28.86;44.31
63097;BME280;49185;42.320;23.198;2023-07-20T07:11:57;94511.75;;;28.45;48.63
63097;BME280;49185;42.320;23.198;2023-07-20T07:14:25;94519.53;;;28.96;47.90
63097;BME280;49185;42.320;23.198;2023-07-20T07:16:50;94516.22;;;29.81;45.80
63097;BME280;49185;42.320;23.198;2023-07-20T07:19:16;94524.84;;;29.83;43.19
63097;BME280;49185;42.320;23.198;2023-07-20T07:21:41;94536.59;;;29.80;41.19
63097;BME280;49185;42.320;23.198;2023-07-20T07:24:07;94537.97;;;28.99;45.19
63097;BME280;49185;42.320;23.198;2023-07-20T07:26:32;94540.31;;;29.65;41.92
63097;BME280;49185;42.320;23.198;2023-07-20T07:28:58;94545.91;;;30.13;43.82
63097;BME280;49185;42.320;23.198;2023-07-20T07:31:25;94548.59;;;30.54;41.95
63097;BME280;49185;42.320;23.198;2023-07-20T07:33:50;94551.06;;;30.70;41.88
63097;BME280;49185;42.320;23.198;2023-07-20T07:36:16;94555.31;;;31.19;40.34
63097;BME280;49185;42.320;23.198;2023-07-20T07:38:41;94552.75;;;30.89;40.03
63097;BME280;49185;42.320;23.198;2023-07-20T07:41:10;94552.22;;;31.32;40.54
63097;BME280;49185;42.320;23.198;2023-07-20T07:43:35;94550.56;;;31.13;39.86
63097;BME280;49185;42.320;23.198;2023-07-20T07:46:01;94555.81;;;31.47;41.21
63097;BME280;49185;42.320;23.198;2023-07-20T07:48:27;94565.56;;;31.33;41.95
63097;BME280;49185;42.320;23.198;2023-07-20T07:50:54;94550.81;;;31.77;40.58
63097;BME280;49185;42.320;23.198;2023-07-20T07:53:19;94556.19;;;31.38;39.18
63097;BME280;49185;42.320;23.198;2023-07-20T07:55:44;94563.75;;;31.59;40.40
63097;BME280;49185;42.320;23.198;2023-07-20T07:58:10;94563.69;;;31.52;40.21
63097;BME280;49185;42.320;23.198;2023-07-20T08:00:35;94542.66;;;32.46;39.33
63097;BME280;49185;42.320;23.198;2023-07-20T08:03:01;94510.38;;;32.71;38.30
63097;BME280;49185;42.320;23.198;2023-07-20T08:05:26;94514.28;;;32.96;38.05
63097;BME280;49185;42.320;23.198;2023-07-20T08:07:52;94524.50;;;32.95;36.97
63097;BME280;49185;42.320;23.198;2023-07-20T08:10:17;94510.00;;;32.59;37.29
63097;BME280;49185;42.320;23.198;2023-07-20T08:12:43;94490.66;;;32.87;36.54
63097;BME280;49185;42.320;23.198;2023-07-20T08:15:10;94496.88;;;33.24;38.24
63097;BME280;49185;42.320;23.198;2023-07-20T08:17:36;94493.78;;;32.93;37.80
63097;BME280;49185;42.320;23.198;2023-07-20T08:20:01;94500.13;;;33.78;34.67
63097;BME280;49185;42.320;23.198;2023-07-20T08:22:27;94508.31;;;33.08;36.66
63097;BME280;49185;42.320;23.198;2023-07-20T08:24:52;94502.06;;;32.86;35.88
63097;BME280;49185;42.320;23.198;2023-07-20T08:27:18;94505.38;;;33.55;36.06
63097;BME280;49185;42.320;23.198;2023-07-20T08:29:43;94507.22;;;33.83;35.21
63097;BME280;49185;42.320;23.198;2023-07-20T08:32:08;94508.72;;;33.14;37.29
63097;BME280;49185;42.320;23.198;2023-07-20T08:34:34;94492.38;;;33.55;36.39
63097;BME280;49185;42.320;23.198;2023-07-20T08:36:59;94481.25;;;33.77;34.65
63097;BME280;49185;42.320;23.198;2023-07-20T08:39:25;94471.47;;;33.58;37.56
63097;BME280;49185;42.320;23.198;2023-07-20T08:41:50;94481.16;;;33.91;34.40
63097;BME280;49185;42.320;23.198;2023-07-20T08:44:16;94486.97;;;34.49;34.70
63097;BME280;49185;42.320;23.198;2023-07-20T08:46:42;94478.59;;;34.60;34.62
63097;BME280;49185;42.320;23.198;2023-07-20T08:49:10;94479.81;;;35.31;31.67
63097;BME280;49185;42.320;23.198;2023-07-20T08:51:36;94484.72;;;34.37;34.33
63097;BME280;49185;42.320;23.198;2023-07-20T08:54:02;94478.72;;;34.46;35.09
63097;BME280;49185;42.320;23.198;2023-07-20T08:56:27;94488.19;;;33.25;35.14
63097;BME280;49185;42.320;23.198;2023-07-20T08:58:55;94486.66;;;33.17;37.73
63097;BME280;49185;42.320;23.198;2023-07-20T09:01:22;94492.84;;;33.36;37.36
63097;BME280;49185;42.320;23.198;2023-07-20T09:03:47;94484.94;;;33.48;35.03
63097;BME280;49185;42.320;23.198;2023-07-20T09:06:14;94482.25;;;33.27;35.50
63097;BME280;49185;42.320;23.198;2023-07-20T09:08:40;94475.69;;;32.96;36.39
63097;BME280;49185;42.320;23.198;2023-07-20T09:11:06;94473.91;;;33.48;36.79
63097;BME280;49185;42.320;23.198;2023-07-20T09:13:33;94460.41;;;32.51;38.09
63097;BME280;49185;42.320;23.198;2023-07-20T09:15:58;94458.88;;;32.22;38.93
63097;BME280;49185;42.320;23.198;2023-07-20T09:18:28;94454.91;;;31.65;39.00
63097;BME280;49185;42.320;23.198;2023-07-20T09:21:06;94463.56;;;31.82;41.04
63097;BME280;49185;42.320;23.198;2023-07-20T09:23:37;94468.28;;;31.95;38.88
63097;BME280;49185;42.320;23.198;2023-07-20T09:26:13;94464.00;;;31.91;38.69
63097;BME280;49185;42.320;23.198;2023-07-20T09:28:43;94467.91;;;31.79;38.71
63097;BME280;49185;42.320;23.198;2023-07-20T09:31:16;94458.06;;;31.89;38.63
63097;BME280;49185;42.320;23.198;2023-07-20T09:33:42;94463.16;;;31.72;38.37
63097;BME280;49185;42.320;23.198;2023-07-20T09:36:09;94456.09;;;32.40;38.75
63097;BME280;49185;42.320;23.198;2023-07-20T09:38:35;94451.34;;;32.76;38.34
63097;BME280;49185;42.320;23.198;2023-07-20T09:41:01;94457.63;;;32.73;40.77
63097;BME280;49185;42.320;23.198;2023-07-20T09:43:29;94450.59;;;32.40;39.17
63097;BME280;49185;42.320;23.198;2023-07-20T09:45:57;94462.41;;;31.79;40.03
63097;BME280;49185;42.320;23.198;2023-07-20T09:48:24;94454.53;;;31.63;41.26
63097;BME280;49185;42.320;23.198;2023-07-20T09:50:50;94443.13;;;31.61;40.05
63097;BME280;49185;42.320;23.198;2023-07-20T09:53:17;94448.25;;;31.81;40.12
63097;BME280;49185;42.320;23.198;2023-07-20T09:55:44;94436.06;;;31.85;40.41
63097;BME280;49185;42.320;23.198;2023-07-20T09:58:10;94449.03;;;32.49;40.23
63097;BME280;49185;42.320;23.198;2023-07-20T10:00:37;94429.94;;;33.09;38.84
63097;BME280;49185;42.320;23.198;2023-07-20T10:03:04;94442.63;;;32.92;38.04
63097;BME280;49185;42.320;23.198;2023-07-20T10:05:32;94445.53;;;33.44;35.19
63097;BME280;49185;42.320;23.198;2023-07-20T10:07:59;94446.91;;;32.97;38.25
63097;BME280;49185;42.320;23.198;2023-07-20T10:10:27;94448.56;;;33.64;36.11
63097;BME280;49185;42.320;23.198;2023-07-20T10:12:52;94432.53;;;34.01;34.84
63097;BME280;49185;42.320;23.198;2023-07-20T10:15:25;94441.38;;;33.04;38.05
63097;BME280;49185;42.320;23.198;2023-07-20T10:18:04;94436.81;;;32.50;38.40
63097;BME280;49185;42.320;23.198;2023-07-20T10:20:33;94434.50;;;32.27;38.67
63097;BME280;49185;42.320;23.198;2023-07-20T10:23:00;94438.84;;;32.07;39.51
63097;BME280;49185;42.320;23.198;2023-07-20T10:25:26;94423.06;;;32.40;38.06
63097;BME280;49185;42.320;23.198;2023-07-20T10:27:52;94427.00;;;32.24;37.91
63097;BME280;49185;42.320;23.198;2023-07-20T10:30:19;94425.75;;;32.76;36.23
63097;BME280;49185;42.320;23.198;2023-07-20T10:32:45;94431.97;;;32.98;35.19
63097;BME280;49185;42.320;23.198;2023-07-20T10:35:15;94435.03;;;33.21;35.42
63097;BME280;49185;42.320;23.198;2023-07-20T10:37:51;94431.59;;;33.70;36.03
63097;BME280;49185;42.320;23.198;2023-07-20T10:40:33;94440.97;;;33.09;35.57
63097;BME280;49185;42.320;23.198;2023-07-20T10:43:07;94433.88;;;33.15;34.10
63097;BME280;49185;42.320;23.198;2023-07-20T10:45:39;94431.44;;;33.28;34.41
63097;BME280;49185;42.320;23.198;2023-07-20T10:48:13;94429.47;;;33.28;34.52
63097;BME280;49185;42.320;23.198;2023-07-20T10:50:39;94436.31;;;32.91;35.68
63097;BME280;49185;42.320;23.198;2023-07-20T10:53:13;94423.44;;;33.48;33.72
63097;BME280;49185;42.320;23.198;2023-07-20T10:55:40;94425.78;;;33.53;34.02
63097;BME280;49185;42.320;23.198;2023-07-20T11:00:35;94409.97;;;33.57;33.90
63097;BME280;49185;42.320;23.198;2023-07-20T11:03:00;94408.91;;;34.00;34.02
63097;BME280;49185;42.320;23.198;2023-07-20T11:05:38;94404.09;;;32.78;34.72
63097;BME280;49185;42.320;23.198;2023-07-20T11:08:11;94399.81;;;32.62;35.37
63097;BME280;49185;42.320;23.198;2023-07-20T11:10:38;94401.03;;;33.39;32.72
63097;BME280;49185;42.320;23.198;2023-07-20T11:16:01;94395.88;;;34.42;33.33
63097;BME280;49185;42.320;23.198;2023-07-20T11:18:28;94396.41;;;33.84;32.65
63097;BME280;49185;42.320;23.198;2023-07-20T11:20:54;94401.88;;;33.28;34.31
63097;BME280;49185;42.320;23.198;2023-07-20T11:23:20;94390.47;;;33.90;33.59
63097;BME280;49185;42.320;23.198;2023-07-20T11:25:46;94387.47;;;34.91;32.22
63097;BME280;49185;42.320;23.198;2023-07-20T11:28:14;94377.59;;;35.75;30.98
63097;BME280;49185;42.320;23.198;2023-07-20T11:30:40;94377.19;;;35.49;32.44
63097;BME280;49185;42.320;23.198;2023-07-20T11:33:08;94365.03;;;35.43;31.16
63097;BME280;49185;42.320;23.198;2023-07-20T11:35:44;94368.34;;;36.09;30.50
63097;BME280;49185;42.320;23.198;2023-07-20T11:38:13;94364.44;;;34.67;30.36
63097;BME280;49185;42.320;23.198;2023-07-20T11:40:47;94363.69;;;34.28;32.99
63097;BME280;49185;42.320;23.198;2023-07-20T11:43:13;94368.19;;;34.08;31.62
63097;BME280;49185;42.320;23.198;2023-07-20T11:45:39;94360.78;;;34.42;32.75
63097;BME280;49185;42.320;23.198;2023-07-20T11:48:05;94360.28;;;34.10;31.54
63097;BME280;49185;42.320;23.198;2023-07-20T11:50:31;94363.50;;;34.46;31.59
63097;BME280;49185;42.320;23.198;2023-07-20T11:52:57;94354.75;;;34.86;29.98
63097;BME280;49185;42.320;23.198;2023-07-20T11:55:23;94354.00;;;34.47;30.27
63097;BME280;49185;42.320;23.198;2023-07-20T11:58:21;94349.41;;;34.33;30.47
63097;BME280;49185;42.320;23.198;2023-07-20T12:01:05;94342.69;;;35.30;30.01
63097;BME280;49185;42.320;23.198;2023-07-20T12:03:30;94341.00;;;35.09;30.75
63097;BME280;49185;42.320;23.198;2023-07-20T12:06:09;94331.34;;;34.59;29.76
63097;BME280;49185;42.320;23.198;2023-07-20T12:08:38;94332.59;;;34.17;32.31
63097;BME280;49185;42.320;23.198;2023-07-20T12:11:03;94337.97;;;35.00;31.68
63097;BME280;49185;42.320;23.198;2023-07-20T12:13:42;94330.44;;;35.31;30.85
63097;BME280;49185;42.320;23.198;2023-07-20T12:16:13;94323.50;;;35.47;31.75
63097;BME280;49185;42.320;23.198;2023-07-20T12:18:39;94321.34;;;34.73;32.61
63097;BME280;49185;42.320;23.198;2023-07-20T12:21:07;94331.41;;;34.56;31.69
63097;BME280;49185;42.320;23.198;2023-07-20T12:23:38;94323.28;;;34.41;30.77
63097;BME280;49185;42.320;23.198;2023-07-20T12:26:07;94325.28;;;34.41;31.68
63097;BME280;49185;42.320;23.198;2023-07-20T12:28:32;94304.72;;;34.76;31.43
63097;BME280;49185;42.320;23.198;2023-07-20T12:30:58;94308.50;;;35.17;31.09
63097;BME280;49185;42.320;23.198;2023-07-20T12:33:23;94303.34;;;35.70;29.64
63097;BME280;49185;42.320;23.198;2023-07-20T12:35:49;94297.38;;;35.95;30.88
63097;BME280;49185;42.320;23.198;2023-07-20T12:38:15;94297.88;;;36.34;29.59
63097;BME280;49185;42.320;23.198;2023-07-20T12:40:41;94295.47;;;35.68;29.12
63097;BME280;49185;42.320;23.198;2023-07-20T12:43:10;94288.41;;;35.13;31.26
63097;BME280;49185;42.320;23.198;2023-07-20T12:45:36;94289.50;;;34.61;33.13
63097;BME280;49185;42.320;23.198;2023-07-20T12:48:04;94280.75;;;33.97;34.32
63097;BME280;49185;42.320;23.198;2023-07-20T12:50:29;94288.63;;;32.98;34.36
63097;BME280;49185;42.320;23.198;2023-07-20T12:52:55;94275.00;;;32.76;35.16
63097;BME280;49185;42.320;23.198;2023-07-20T12:55:21;94281.09;;;33.05;36.94
63097;BME280;49185;42.320;23.198;2023-07-20T12:57:48;94281.88;;;33.13;36.22
63097;BME280;49185;42.320;23.198;2023-07-20T13:00:15;94280.50;;;33.36;38.21